Aviation Digital Data Service (ADDS)

Output produced by METARs form (1544 UTC 15 October 2018)
found at http://aviationweather.gov/metar/data/
 
KNEW 151534Z 16012G21KT 10SM BKN021 BKN028 29/24 A3005 RMK AO2 T02940244
KNEW 151453Z 15012KT 10SM FEW019 29/24 A3004 RMK AO2 SLP166 T02940244 51010
KNEW 151144Z 1512/1612 13006KT P6SM SKC 
     FM151500 12004KT P6SM VCSH BKN025 BKN070 
     TEMPO 1517/1521 4SM -TSRA OVC015CB 
     FM160400 02005KT P6SM VCSH BKN025 OVC030 
     FM160700 VRB04KT 6SM BR SCT008 BKN030 OVC050